Time,TemperatureF,DewpointF,PressureIn,WindDirection,WindDirectionDegrees,WindSpeedMPH,WindSpeedGustMPH,Humidity,HourlyPrecipIn,Conditions,Clouds,dailyrainin,SolarRadiationWatts/m^2,SoftwareType,DateUTC
2013-05-20 00:00:00,70.0,62.8,29.66,SSE,158,5.0,9.0,78,0.00,,SKC,0.00,0.00,VWS V14.01,2013-05-20 05:00:00,
2013-05-20 00:10:00,69.7,63.3,29.65,SSE,158,5.0,9.0,80,0.00,,SKC,0.00,0.00,VWS V14.01,2013-05-20 05:10:00,
2013-05-20 00:20:00,69.3,62.5,29.65,SSE,158,6.0,10.0,79,0.00,,SKC,0.00,0.00,VWS V14.01,2013-05-20 05:20:00,
2013-05-20 00:30:00,69.4,62.6,29.65,SSE,158,5.0,10.0,79,0.00,,SKC,0.00,0.00,VWS V14.01,2013-05-20 05:30:00,
2013-05-20 00:40:00,69.2,62.8,29.66,SSE,158,5.0,8.0,80,0.00,,SKC,0.00,0.00,VWS V14.01,2013-05-20 05:40:00,
2013-05-20 00:50:00,69.0,62.6,29.66,SSE,158,5.0,9.0,80,0.00,,SKC,0.00,0.00,VWS V14.01,2013-05-20 05:50:00,
2013-05-20 01:00:00,68.8,62.4,29.65,SSE,158,6.0,9.0,80,0.00,,SKC,0.00,0.00,VWS V14.01,2013-05-20 06:00:00,
2013-05-20 01:10:00,68.7,62.3,29.64,SE,135,5.0,10.0,80,0.00,,SKC,0.00,0.00,VWS V14.01,2013-05-20 06:10:00,
2013-05-20 01:20:00,68.9,62.5,29.65,SE,135,5.0,10.0,80,0.00,,SKC,0.00,0.00,VWS V14.01,2013-05-20 06:20:00,
2013-05-20 01:30:00,68.9,62.5,29.65,SSE,158,4.0,8.0,80,0.00,,SKC,0.00,0.00,VWS V14.01,2013-05-20 06:30:00,
2013-05-20 01:40:00,68.8,62.4,29.65,SSE,158,2.0,6.0,80,0.00,,SKC,0.00,0.00,VWS V14.01,2013-05-20 06:40:00,
2013-05-20 01:50:00,68.6,62.5,29.65,SSE,158,3.0,7.0,81,0.00,,SKC,0.00,0.00,VWS V14.01,2013-05-20 06:50:00,
2013-05-20 02:00:00,68.6,62.5,29.65,SSE,158,3.0,7.0,81,0.00,,SKC,0.00,0.00,VWS V14.01,2013-05-20 07:00:00,
2013-05-20 02:10:00,68.6,62.9,29.66,SE,135,4.0,7.0,82,0.00,,SKC,0.00,0.00,VWS V14.01,2013-05-20 07:10:00,
2013-05-20 02:20:00,68.7,63.0,29.65,SE,135,4.0,7.0,82,0.00,,SKC,0.00,0.00,VWS V14.01,2013-05-20 07:20:00,
2013-05-20 02:30:00,68.8,63.1,29.65,SE,135,2.0,6.0,82,0.00,,SKC,0.00,0.00,VWS V14.01,2013-05-20 07:30:00,
2013-05-20 02:40:00,68.7,63.0,29.64,SE,135,0.0,2.0,82,0.00,,SKC,0.00,0.00,VWS V14.01,2013-05-20 07:40:00,
2013-05-20 02:50:00,68.3,62.9,29.64,SE,135,0.0,1.0,83,0.00,,SKC,0.00,0.00,VWS V14.01,2013-05-20 07:50:00,
2013-05-20 03:00:00,68.0,63.3,29.63,SE,135,0.0,4.0,85,0.00,,SKC,0.00,0.00,VWS V14.01,2013-05-20 08:00:00,
2013-05-20 03:10:00,67.6,63.3,29.64,NW,315,3.0,13.0,86,0.00,,SKC,0.00,0.00,VWS V14.01,2013-05-20 08:10:00,
2013-05-20 03:20:00,69.3,64.3,29.65,WNW,292,8.0,16.0,84,0.00,,SKC,0.00,0.00,VWS V14.01,2013-05-20 08:20:00,
2013-05-20 03:30:00,70.3,64.6,29.65,West,270,6.0,12.0,82,0.00,,SKC,0.00,0.00,VWS V14.01,2013-05-20 08:30:00,
2013-05-20 03:40:00,70.5,63.7,29.64,NW,315,6.0,13.0,79,0.00,,SKC,0.00,0.00,VWS V14.01,2013-05-20 08:40:00,
2013-05-20 03:50:00,70.2,63.0,29.64,NW,315,1.0,5.0,78,0.00,,SKC,0.00,0.00,VWS V14.01,2013-05-20 08:50:00,
2013-05-20 04:00:00,69.9,62.7,29.63,NW,315,0.0,3.0,78,0.00,,SKC,0.00,0.00,VWS V14.01,2013-05-20 09:00:00,
2013-05-20 04:10:00,69.5,63.1,29.63,NW,315,1.0,4.0,80,0.00,,SKC,0.00,0.00,VWS V14.01,2013-05-20 09:10:00,
2013-05-20 04:20:00,69.5,62.7,29.63,NNW,338,1.0,6.0,79,0.00,,SKC,0.00,0.00,VWS V14.01,2013-05-20 09:20:00,
2013-05-20 04:30:00,69.2,63.1,29.63,North,0,1.0,3.0,81,0.00,,SKC,0.00,0.00,VWS V14.01,2013-05-20 09:30:00,
2013-05-20 04:40:00,68.7,63.0,29.64,North,0,0.0,2.0,82,0.00,,SKC,0.00,0.00,VWS V14.01,2013-05-20 09:40:00,
2013-05-20 04:50:00,68.7,63.3,29.63,North,0,0.0,3.0,83,0.00,,SKC,0.00,0.00,VWS V14.01,2013-05-20 09:50:00,
2013-05-20 05:00:00,68.7,63.0,29.63,North,0,0.0,3.0,82,0.00,,SKC,0.00,0.00,VWS V14.01,2013-05-20 10:00:00,
2013-05-20 05:10:00,68.1,62.8,29.63,North,0,0.0,1.0,83,0.00,,SKC,0.00,0.00,VWS V14.01,2013-05-20 10:10:00,
2013-05-20 05:20:00,67.5,62.8,29.63,North,0,0.0,0.0,85,0.00,,SKC,0.00,0.00,VWS V14.01,2013-05-20 10:20:00,
2013-05-20 05:30:00,67.0,62.7,29.63,North,0,0.0,4.0,86,0.00,,SKC,0.00,0.00,VWS V14.01,2013-05-20 10:30:00,
2013-05-20 05:40:00,66.9,62.6,29.62,North,0,0.0,2.0,86,0.00,,SKC,0.00,3.00,VWS V14.01,2013-05-20 10:40:00,
2013-05-20 05:50:00,66.4,62.4,29.60,North,0,0.0,3.0,87,0.00,,SKC,0.00,11.00,VWS V14.01,2013-05-20 10:50:00,
2013-05-20 06:00:00,66.2,62.5,29.61,North,0,1.0,3.0,88,0.00,,SKC,0.00,19.00,VWS V14.01,2013-05-20 11:00:00,
2013-05-20 06:10:00,66.4,62.4,29.63,North,0,1.0,4.0,87,0.00,,SKC,0.00,35.00,VWS V14.01,2013-05-20 11:10:00,
2013-05-20 06:20:00,66.7,62.7,29.65,North,0,2.0,5.0,87,0.00,,SKC,0.00,49.00,VWS V14.01,2013-05-20 11:20:00,
2013-05-20 06:30:00,67.0,63.3,29.66,NW,315,3.0,7.0,88,0.00,,SKC,0.00,72.00,VWS V14.01,2013-05-20 11:30:00,
2013-05-20 06:40:00,68.1,64.4,29.65,South,180,4.0,8.0,88,0.00,,SKC,0.00,110.00,VWS V14.01,2013-05-20 11:40:00,
2013-05-20 06:50:00,69.2,64.2,29.65,SSE,158,7.0,12.0,84,0.00,,SKC,0.00,78.00,VWS V14.01,2013-05-20 11:50:00,
2013-05-20 07:00:00,69.9,64.2,29.64,SSE,158,7.0,12.0,82,0.00,,SKC,0.00,91.00,VWS V14.01,2013-05-20 12:00:00,
2013-05-20 07:10:00,70.4,64.7,29.65,South,180,6.0,9.0,82,0.00,,SKC,0.00,149.00,VWS V14.01,2013-05-20 12:10:00,
2013-05-20 07:20:00,70.6,64.5,29.66,SSW,202,8.0,13.0,81,0.00,,SKC,0.00,130.00,VWS V14.01,2013-05-20 12:20:00,
2013-05-20 07:30:00,70.9,64.1,29.66,SSW,202,10.0,18.0,79,0.00,,SKC,0.00,160.00,VWS V14.01,2013-05-20 12:30:00,
2013-05-20 07:40:00,71.0,63.1,29.66,SSW,202,10.0,17.0,76,0.00,,SKC,0.00,135.00,VWS V14.01,2013-05-20 12:40:00,
2013-05-20 07:50:00,71.0,62.3,29.65,SSW,202,9.0,15.0,74,0.00,,SKC,0.00,158.00,VWS V14.01,2013-05-20 12:50:00,
2013-05-20 08:00:00,71.3,61.8,29.64,South,180,8.0,13.0,72,0.00,,SKC,0.00,149.00,VWS V14.01,2013-05-20 13:00:00,
2013-05-20 08:10:00,71.5,61.6,29.63,South,180,6.0,12.0,71,0.00,,SKC,0.00,126.00,VWS V14.01,2013-05-20 13:10:00,
2013-05-20 08:20:00,71.7,61.4,29.62,SSE,158,7.0,12.0,70,0.00,,SKC,0.00,121.00,VWS V14.01,2013-05-20 13:20:00,
2013-05-20 08:30:00,71.8,61.5,29.62,SSE,158,7.0,12.0,70,0.00,,SKC,0.00,166.00,VWS V14.01,2013-05-20 13:30:00,
2013-05-20 08:40:00,71.9,61.6,29.63,SSE,158,7.0,13.0,70,0.00,,SKC,0.00,196.00,VWS V14.01,2013-05-20 13:40:00,
2013-05-20 08:50:00,72.1,61.8,29.63,SSE,158,7.0,12.0,70,0.00,,SKC,0.00,265.00,VWS V14.01,2013-05-20 13:50:00,
2013-05-20 09:00:00,72.5,61.8,29.62,South,180,8.0,14.0,69,0.00,,SKC,0.00,319.00,VWS V14.01,2013-05-20 14:00:00,
2013-05-20 09:10:00,72.9,61.7,29.62,South,180,7.0,14.0,68,0.00,,SKC,0.00,313.00,VWS V14.01,2013-05-20 14:10:00,
2013-05-20 09:20:00,73.5,61.9,29.61,South,180,8.0,15.0,67,0.00,,SKC,0.00,385.00,VWS V14.01,2013-05-20 14:20:00,
2013-05-20 09:30:00,73.9,61.8,29.61,South,180,6.0,11.0,66,0.00,,SKC,0.00,369.00,VWS V14.01,2013-05-20 14:30:00,
2013-05-20 09:40:00,74.4,62.3,29.62,South,180,6.0,11.0,66,0.00,,SKC,0.00,440.00,VWS V14.01,2013-05-20 14:40:00,
2013-05-20 09:50:00,75.1,62.1,29.63,South,180,6.0,14.0,64,0.00,,SKC,0.00,452.00,VWS V14.01,2013-05-20 14:50:00,
2013-05-20 10:00:00,75.8,62.3,29.63,South,180,7.0,16.0,63,0.00,,SKC,0.00,487.00,VWS V14.01,2013-05-20 15:00:00,
2013-05-20 10:10:00,76.3,60.5,29.63,SSW,202,12.0,23.0,58,0.00,,SKC,0.00,417.00,VWS V14.01,2013-05-20 15:10:00,
2013-05-20 10:20:00,76.4,59.6,29.64,SSW,202,18.0,28.0,56,0.00,,SKC,0.00,479.00,VWS V14.01,2013-05-20 15:20:00,
2013-05-20 10:30:00,76.7,59.3,29.64,SSW,202,18.0,27.0,55,0.00,,SKC,0.00,756.00,VWS V14.01,2013-05-20 15:30:00,
2013-05-20 10:40:00,76.7,59.8,29.64,SSW,202,18.0,31.0,56,0.00,,SKC,0.00,826.00,VWS V14.01,2013-05-20 15:40:00,
2013-05-20 10:50:00,76.9,60.0,29.64,SSW,202,15.0,26.0,56,0.00,,SKC,0.00,806.00,VWS V14.01,2013-05-20 15:50:00,
2013-05-20 11:00:00,77.1,60.2,29.64,SSW,202,15.0,24.0,56,0.00,,SKC,0.00,823.00,VWS V14.01,2013-05-20 16:00:00,
2013-05-20 11:10:00,77.1,60.2,29.64,SW,225,16.0,26.0,56,0.00,,SKC,0.00,830.00,VWS V14.01,2013-05-20 16:10:00,
2013-05-20 11:20:00,77.4,61.5,29.64,SSW,202,13.0,19.0,58,0.00,,SKC,0.00,842.00,VWS V14.01,2013-05-20 16:20:00,
2013-05-20 11:30:00,77.9,61.0,29.64,SSW,202,14.0,24.0,56,0.00,,SKC,0.00,880.00,VWS V14.01,2013-05-20 16:30:00,
2013-05-20 11:40:00,78.0,59.0,29.64,SSW,202,12.0,22.0,52,0.00,,SKC,0.00,846.00,VWS V14.01,2013-05-20 16:40:00,
2013-05-20 11:50:00,78.4,59.3,29.64,SSW,202,13.0,23.0,52,0.00,,SKC,0.00,901.00,VWS V14.01,2013-05-20 16:50:00,
2013-05-20 12:00:00,78.6,60.1,29.64,SSW,202,12.0,23.0,53,0.00,,SKC,0.00,920.00,VWS V14.01,2013-05-20 17:00:00,
2013-05-20 12:10:00,78.7,60.2,29.64,SSW,202,13.0,23.0,53,0.00,,SKC,0.00,913.00,VWS V14.01,2013-05-20 17:10:00,
2013-05-20 12:20:00,78.8,60.8,29.64,SSW,202,13.0,21.0,54,0.00,,SKC,0.00,919.00,VWS V14.01,2013-05-20 17:20:00,
2013-05-20 12:30:00,79.4,60.3,29.63,SSW,202,12.0,23.0,52,0.00,,SKC,0.00,923.00,VWS V14.01,2013-05-20 17:30:00,
2013-05-20 12:40:00,80.5,59.0,29.64,South,180,12.0,24.0,48,0.00,,SKC,0.00,929.00,VWS V14.01,2013-05-20 17:40:00,
2013-05-20 12:50:00,80.8,58.1,29.64,South,191,13.0,24.0,46,0.00,,,0.00,934,Cumulus v1.9.3,2013-05-20 17:50:00,
2013-05-20 12:59:00,80.5,59.0,29.64,South,180,12.0,24.0,48,0.00,,SKC,0.00,929.00,VWS V14.01,2013-05-20 17:59:00,
2013-05-20 13:00:00,80.7,59.2,29.64,SSW,203,12.0,22.0,48,0.00,,,0.00,934,Cumulus v1.9.3,2013-05-20 18:00:00,
2013-05-20 13:04:00,81.2,59.7,29.64,SSW,194,13.0,16.0,48,0.00,,SKC,0.00,940.00,VWS V14.01,2013-05-20 18:04:00,
2013-05-20 13:09:00,81.0,58.3,29.64,SSW,197,12.0,20.0,46,0.00,,SKC,0.00,926.00,VWS V14.01,2013-05-20 18:09:00,
2013-05-20 13:10:00,80.9,58.8,29.64,SSW,203,11.0,20.0,47,0.00,,,0.00,936,Cumulus v1.9.3,2013-05-20 18:10:00,
2013-05-20 13:14:00,81.2,59.7,29.64,SSW,197,17.0,22.0,48,0.00,,SKC,0.00,925.00,VWS V14.01,2013-05-20 18:14:00,
2013-05-20 13:19:00,81.6,59.4,29.63,SSE,167,19.0,22.0,47,0.00,,SKC,0.00,930.00,VWS V14.01,2013-05-20 18:19:00,
2013-05-20 13:20:00,81.7,59.5,29.63,SSW,203,12.0,22.0,47,0.00,,,0.00,929,Cumulus v1.9.3,2013-05-20 18:20:00,
2013-05-20 13:24:00,81.6,59.4,29.63,South,191,13.0,24.0,47,0.00,,SKC,0.00,928.00,VWS V14.01,2013-05-20 18:24:00,
2013-05-20 13:29:00,81.4,60.4,29.64,SSW,212,16.0,24.0,49,0.00,,SKC,0.00,932.00,VWS V14.01,2013-05-20 18:29:00,
2013-05-20 13:30:00,81.3,59.7,29.64,SSW,203,14.0,24.0,48,0.00,,,0.00,930,Cumulus v1.9.3,2013-05-20 18:30:00,
2013-05-20 13:34:00,81.5,59.9,29.64,South,175,10.0,23.0,48,0.00,,SKC,0.00,930.00,VWS V14.01,2013-05-20 18:34:00,
2013-05-20 13:39:00,81.8,60.2,29.63,SSW,197,11.0,23.0,48,0.00,,SKC,0.00,875.00,VWS V14.01,2013-05-20 18:39:00,
2013-05-20 13:40:00,81.9,61.4,29.63,South,181,14.0,23.0,50,0.00,,,0.00,919,Cumulus v1.9.3,2013-05-20 18:40:00,
2013-05-20 13:44:00,81.9,60.3,29.63,South,182,11.0,22.0,48,0.00,,SKC,0.00,918.00,VWS V14.01,2013-05-20 18:44:00,
2013-05-20 13:49:00,81.5,60.5,29.63,SSW,202,20.0,22.0,49,0.00,,SKC,0.00,919.00,VWS V14.01,2013-05-20 18:49:00,
2013-05-20 13:50:00,81.5,60.5,29.63,South,181,14.0,22.0,49,0.00,,,0.00,919,Cumulus v1.9.3,2013-05-20 18:50:00,
2013-05-20 13:54:00,81.8,59.0,29.62,South,189,17.0,23.0,46,0.00,,SKC,0.00,909.00,VWS V14.01,2013-05-20 18:54:00,
2013-05-20 13:59:00,81.8,59.6,29.63,SSW,198,14.0,24.0,47,0.00,,SKC,0.00,510.00,VWS V14.01,2013-05-20 18:59:00,
2013-05-20 14:00:00,81.8,59.6,29.63,South,181,15.0,24.0,47,0.00,,,0.00,776,Cumulus v1.9.3,2013-05-20 19:00:00,
2013-05-20 14:04:00,81.9,61.5,29.63,SSW,207,9.0,21.0,50,0.00,,SKC,0.00,921.00,VWS V14.01,2013-05-20 19:04:00,
2013-05-20 14:09:00,82.4,60.2,29.63,South,186,13.0,21.0,47,0.00,,SKC,0.00,849.00,VWS V14.01,2013-05-20 19:09:00,
2013-05-20 14:10:00,82.4,60.1,29.63,SSW,203,12.0,21.0,47,0.00,,,0.00,850,Cumulus v1.9.3,2013-05-20 19:10:00,
2013-05-20 14:14:00,82.5,60.3,29.63,SSE,165,13.0,21.0,47,0.00,,SKC,0.00,911.00,VWS V14.01,2013-05-20 19:14:00,
2013-05-20 14:19:00,82.9,61.2,29.63,SSW,212,14.0,21.0,48,0.00,,SKC,0.00,896.00,VWS V14.01,2013-05-20 19:19:00,
2013-05-20 14:20:00,82.9,60.6,29.63,SSW,203,14.0,21.0,47,0.00,,,0.00,902,Cumulus v1.9.3,2013-05-20 19:20:00,
2013-05-20 14:24:00,82.6,59.8,29.63,SW,217,22.0,24.0,46,0.00,,SKC,0.00,886.00,VWS V14.01,2013-05-20 19:24:00,
2013-05-20 14:29:00,82.7,58.0,29.63,SSW,209,18.0,25.0,43,0.00,,SKC,0.00,875.00,VWS V14.01,2013-05-20 19:29:00,
2013-05-20 14:30:00,82.7,58.6,29.63,SSW,203,17.0,25.0,44,0.00,,,0.00,884,Cumulus v1.9.3,2013-05-20 19:30:00,
2013-05-20 14:35:00,82.5,59.0,29.64,South,182,14.0,24.0,45,0.00,,SKC,0.00,865.00,VWS V14.01,2013-05-20 19:35:00,
2013-05-20 14:40:00,82.3,58.2,29.64,SSW,192,18.0,28.0,44,0.00,,SKC,0.00,860.00,VWS V14.01,2013-05-20 19:40:00,
2013-05-20 14:45:00,82.3,58.2,29.63,South,191,14.0,27.0,44,0.00,,SKC,0.00,853.00,VWS V14.01,2013-05-20 19:45:00,
2013-05-20 14:49:00,82.3,58.2,29.63,SSW,202,15.0,28.0,44,0.00,,SKC,0.00,840.00,VWS V14.01,2013-05-20 19:49:00,
2013-05-20 14:50:00,82.4,58.9,29.63,SSW,203,17.0,28.0,45,0.00,,,0.00,851,Cumulus v1.9.3,2013-05-20 19:50:00,
2013-05-20 14:55:00,82.5,59.0,29.63,SW,223,19.0,24.0,45,0.00,,SKC,0.00,837.00,VWS V14.01,2013-05-20 19:55:00,
2013-05-20 15:00:00,82.5,58.4,29.63,SSW,213,14.0,29.0,44,0.00,,SKC,0.00,800.00,VWS V14.01,2013-05-20 20:00:00,
2013-05-20 15:05:00,82.8,58.7,29.63,SSW,210,20.0,22.0,44,0.00,,SKC,0.00,828.00,VWS V14.01,2013-05-20 20:05:00,
2013-05-20 15:10:00,82.6,58.5,29.63,SSW,209,11.0,24.0,44,0.00,,SKC,0.00,830.00,VWS V14.01,2013-05-20 20:10:00,
2013-05-20 15:15:00,83.0,58.9,29.63,SSW,211,17.0,24.0,44,0.00,,SKC,0.00,814.00,VWS V14.01,2013-05-20 20:15:00,
2013-05-20 15:20:00,82.9,58.8,29.63,SSW,201,11.0,24.0,44,0.00,,SKC,0.00,786.00,VWS V14.01,2013-05-20 20:20:00,
2013-05-20 15:25:00,83.6,58.8,29.63,SSW,200,22.0,24.0,43,0.00,,SKC,0.00,798.00,VWS V14.01,2013-05-20 20:25:00,
2013-05-20 15:30:00,83.7,58.8,29.63,SW,232,17.0,28.0,43,0.00,,SKC,0.00,780.00,VWS V14.01,2013-05-20 20:30:00,
2013-05-20 15:35:00,83.6,59.4,29.62,SSE,165,15.0,23.0,44,0.00,,SKC,0.00,766.00,VWS V14.01,2013-05-20 20:35:00,
2013-05-20 15:40:00,83.6,59.4,29.62,SSW,207,13.0,23.0,44,0.00,,SKC,0.00,759.00,VWS V14.01,2013-05-20 20:40:00,
2013-05-20 15:45:00,83.6,59.4,29.62,SSW,207,16.0,23.0,44,0.00,,SKC,0.00,735.00,VWS V14.01,2013-05-20 20:45:00,
2013-05-20 15:50:00,83.5,59.3,29.62,SSW,196,15.0,28.0,44,0.00,,SKC,0.00,724.00,VWS V14.01,2013-05-20 20:50:00,
2013-05-20 15:55:00,83.1,59.6,29.62,SSW,208,19.0,24.0,45,0.00,,SKC,0.00,710.00,VWS V14.01,2013-05-20 20:55:00,
2013-05-20 16:00:00,83.4,59.8,29.62,SSW,213,9.0,24.0,45,0.00,,SKC,0.00,705.00,VWS V14.01,2013-05-20 21:00:00,
2013-05-20 16:05:00,83.4,58.6,29.62,South,173,21.0,27.0,43,0.00,,SKC,0.00,687.00,VWS V14.01,2013-05-20 21:05:00,
2013-05-20 16:10:00,83.4,59.2,29.62,SSW,206,22.0,27.0,44,0.00,,SKC,0.00,682.00,VWS V14.01,2013-05-20 21:10:00,
2013-05-20 16:15:00,83.4,59.2,29.61,SSW,207,14.0,24.0,44,0.00,,SKC,0.00,666.00,VWS V14.01,2013-05-20 21:15:00,
2013-05-20 16:20:00,83.3,58.5,29.61,SSW,201,18.0,24.0,43,0.00,,SKC,0.00,656.00,VWS V14.01,2013-05-20 21:20:00,
2013-05-20 16:25:00,83.3,58.5,29.61,South,184,14.0,27.0,43,0.00,,SKC,0.00,622.00,VWS V14.01,2013-05-20 21:25:00,
2013-05-20 16:30:00,83.6,59.4,29.61,SSW,201,14.0,27.0,44,0.00,,SKC,0.00,621.00,VWS V14.01,2013-05-20 21:30:00,
2013-05-20 16:35:00,83.3,59.1,29.61,SSW,202,22.0,28.0,44,0.00,,SKC,0.00,610.00,VWS V14.01,2013-05-20 21:35:00,
2013-05-20 16:40:00,83.2,59.7,29.60,SSW,209,8.0,28.0,45,0.00,,SKC,0.00,603.00,VWS V14.01,2013-05-20 21:40:00,
2013-05-20 16:45:00,83.4,59.2,29.60,South,184,10.0,22.0,44,0.00,,SKC,0.00,587.00,VWS V14.01,2013-05-20 21:45:00,
2013-05-20 16:50:00,83.4,58.6,29.60,SSW,201,16.0,24.0,43,0.00,,SKC,0.00,580.00,VWS V14.01,2013-05-20 21:50:00,
2013-05-20 16:55:00,83.1,59.0,29.59,SW,215,20.0,24.0,44,0.00,,SKC,0.00,554.00,VWS V14.01,2013-05-20 21:55:00,
2013-05-20 17:00:00,83.0,58.9,29.59,SSW,209,14.0,24.0,44,0.00,,SKC,0.00,575.00,VWS V14.01,2013-05-20 22:00:00,
2013-05-20 17:05:00,83.2,59.0,29.59,SW,215,18.0,21.0,44,0.00,,SKC,0.00,554.00,VWS V14.01,2013-05-20 22:05:00,
2013-05-20 17:10:00,83.2,59.0,29.59,SW,223,12.0,25.0,44,0.00,,SKC,0.00,519.00,VWS V14.01,2013-05-20 22:10:00,
2013-05-20 17:15:00,83.3,59.1,29.60,South,181,20.0,21.0,44,0.00,,SKC,0.00,494.00,VWS V14.01,2013-05-20 22:15:00,
2013-05-20 17:20:00,83.3,58.5,29.60,SSW,211,12.0,21.0,43,0.00,,SKC,0.00,476.00,VWS V14.01,2013-05-20 22:20:00,
2013-05-20 17:25:00,83.4,59.8,29.60,South,189,13.0,22.0,45,0.00,,SKC,0.00,454.00,VWS V14.01,2013-05-20 22:25:00,
2013-05-20 17:30:00,83.2,60.3,29.60,SW,219,17.0,22.0,46,0.00,,SKC,0.00,436.00,VWS V14.01,2013-05-20 22:30:00,
2013-05-20 17:35:00,83.3,60.4,29.59,South,188,18.0,18.0,46,0.00,,SKC,0.00,427.00,VWS V14.01,2013-05-20 22:35:00,
2013-05-20 17:40:00,83.4,59.8,29.59,SSW,207,12.0,20.0,45,0.00,,SKC,0.00,411.00,VWS V14.01,2013-05-20 22:40:00,
2013-05-20 17:45:00,83.3,60.4,29.59,SSW,207,16.0,17.0,46,0.00,,SKC,0.00,399.00,VWS V14.01,2013-05-20 22:45:00,
2013-05-20 17:50:00,83.3,59.8,29.59,SW,216,15.0,18.0,45,0.00,,SKC,0.00,383.00,VWS V14.01,2013-05-20 22:50:00,
2013-05-20 17:55:00,83.3,60.4,29.59,South,183,11.0,16.0,46,0.00,,SKC,0.00,364.00,VWS V14.01,2013-05-20 22:55:00,
2013-05-20 18:00:00,83.3,60.4,29.59,SW,234,8.0,16.0,46,0.00,,SKC,0.00,346.00,VWS V14.01,2013-05-20 23:00:00,
2013-05-20 18:05:00,83.4,60.5,29.59,SW,229,6.0,16.0,46,0.00,,SKC,0.00,332.00,VWS V14.01,2013-05-20 23:05:00,
2013-05-20 18:10:00,83.5,59.3,29.59,SSW,200,8.0,10.0,44,0.00,,SKC,0.00,316.00,VWS V14.01,2013-05-20 23:10:00,
2013-05-20 18:15:00,83.4,59.8,29.59,SSW,192,7.0,18.0,45,0.00,,SKC,0.00,297.00,VWS V14.01,2013-05-20 23:15:00,
2013-05-20 18:20:00,83.2,59.7,29.59,South,179,10.0,11.0,45,0.00,,SKC,0.00,281.00,VWS V14.01,2013-05-20 23:20:00,
2013-05-20 18:25:00,83.1,60.2,29.59,South,190,10.0,16.0,46,0.00,,SKC,0.00,269.00,VWS V14.01,2013-05-20 23:25:00,
2013-05-20 18:30:00,83.0,60.7,29.59,SW,221,6.0,9.0,47,0.00,,SKC,0.00,250.00,VWS V14.01,2013-05-20 23:30:00,
2013-05-20 18:35:00,83.0,59.5,29.59,SSW,194,14.0,17.0,45,0.00,,SKC,0.00,237.00,VWS V14.01,2013-05-20 23:35:00,
2013-05-20 18:40:00,83.0,60.1,29.59,SSW,209,7.0,9.0,46,0.00,,SKC,0.00,218.00,VWS V14.01,2013-05-20 23:40:00,
2013-05-20 18:45:00,82.9,60.0,29.59,SW,225,9.0,16.0,46,0.00,,SKC,0.00,200.00,VWS V14.01,2013-05-20 23:45:00,
2013-05-20 18:50:00,82.8,59.3,29.60,SW,225,7.0,10.0,45,0.00,,SKC,0.00,181.00,VWS V14.01,2013-05-20 23:50:00,
2013-05-20 18:55:00,82.6,59.1,29.59,SSW,213,6.0,15.0,45,0.00,,SKC,0.00,167.00,VWS V14.01,2013-05-20 23:55:00,
2013-05-20 19:00:00,82.4,59.6,29.60,SSW,204,5.0,5.0,46,0.00,,SKC,0.00,146.00,VWS V14.01,2013-05-21 00:00:00,
2013-05-20 19:05:00,82.1,59.9,29.60,SSW,212,8.0,15.0,47,0.00,,SKC,0.00,130.00,VWS V14.01,2013-05-21 00:05:00,
2013-05-20 19:10:00,81.9,59.7,29.60,SW,229,5.0,5.0,47,0.00,,SKC,0.00,113.00,VWS V14.01,2013-05-21 00:10:00,
2013-05-20 19:15:00,81.7,60.1,29.60,SW,221,7.0,12.0,48,0.00,,SKC,0.00,98.00,VWS V14.01,2013-05-21 00:15:00,
2013-05-20 19:20:00,81.5,59.9,29.60,SSW,203,8.0,16.0,48,0.00,,,0.00,98,Cumulus v1.9.3,2013-05-21 00:20:00,
2013-05-20 19:21:00,81.5,59.9,29.60,SSW,206,9.0,9.0,48,0.00,,SKC,0.00,84.00,VWS V14.01,2013-05-21 00:21:00,
2013-05-20 19:26:00,81.2,59.7,29.60,SSW,201,11.0,15.0,48,0.00,,SKC,0.00,70.00,VWS V14.01,2013-05-21 00:26:00,
2013-05-20 19:30:00,81.0,59.5,29.60,SSW,203,9.0,15.0,48,0.00,,,0.00,70,Cumulus v1.9.3,2013-05-21 00:30:00,
2013-05-20 19:31:00,80.9,59.4,29.59,SSW,199,12.0,12.0,48,0.00,,SKC,0.00,56.00,VWS V14.01,2013-05-21 00:31:00,
2013-05-20 19:36:00,80.8,59.3,29.60,SSW,193,9.0,17.0,48,0.00,,SKC,0.00,47.00,VWS V14.01,2013-05-21 00:36:00,
2013-05-20 19:40:00,80.5,59.0,29.60,SSW,203,9.0,18.0,48,0.00,,,0.00,48,Cumulus v1.9.3,2013-05-21 00:40:00,
2013-05-20 19:41:00,80.5,59.0,29.60,SSW,209,8.0,11.0,48,0.00,,SKC,0.00,39.00,VWS V14.01,2013-05-21 00:41:00,
2013-05-20 19:46:00,80.3,58.8,29.60,SSW,210,6.0,14.0,48,0.00,,SKC,0.00,32.00,VWS V14.01,2013-05-21 00:46:00,
2013-05-20 19:50:00,80.0,58.5,29.60,SSW,203,8.0,14.0,48,0.00,,,0.00,32,Cumulus v1.9.3,2013-05-21 00:50:00,
2013-05-20 19:51:00,80.0,58.0,29.60,SSW,194,7.0,11.0,47,0.00,,SKC,0.00,23.00,VWS V14.01,2013-05-21 00:51:00,
2013-05-20 19:56:00,79.7,58.3,29.60,SSW,213,5.0,11.0,48,0.00,,SKC,0.00,18.00,VWS V14.01,2013-05-21 00:56:00,
2013-05-20 20:00:00,79.3,58.5,29.60,SSW,203,5.0,12.0,49,0.00,,,0.00,17,Cumulus v1.9.3,2013-05-21 01:00:00,
2013-05-20 20:01:00,79.3,58.5,29.60,SSW,211,3.0,5.0,49,0.00,,SKC,0.00,12.00,VWS V14.01,2013-05-21 01:01:00,
2013-05-20 20:06:00,79.0,58.2,29.60,SSW,210,3.0,7.0,49,0.00,,SKC,0.00,9.00,VWS V14.01,2013-05-21 01:06:00,
2013-05-20 20:10:00,78.7,58.5,29.60,SSW,203,4.0,7.0,50,0.00,,,0.00,8,Cumulus v1.9.3,2013-05-21 01:10:00,
2013-05-20 20:11:00,78.6,58.4,29.60,SSW,210,4.0,4.0,50,0.00,,SKC,0.00,5.00,VWS V14.01,2013-05-21 01:11:00,
2013-05-20 20:16:00,78.3,58.2,29.60,SSW,210,3.0,5.0,50,0.00,,SKC,0.00,0.00,VWS V14.01,2013-05-21 01:16:00,
2013-05-20 20:20:00,78.0,58.4,29.60,SSW,203,3.0,7.0,51,0.00,,,0.00,1,Cumulus v1.9.3,2013-05-21 01:20:00,
2013-05-20 20:21:00,78.0,58.4,29.60,SSW,210,3.0,3.0,51,0.00,,SKC,0.00,0.00,VWS V14.01,2013-05-21 01:21:00,
2013-05-20 20:26:00,77.7,58.2,29.60,SSW,210,3.0,4.0,51,0.00,,SKC,0.00,0.00,VWS V14.01,2013-05-21 01:26:00,
2013-05-20 20:30:00,77.6,58.0,29.59,SSW,203,3.0,4.0,51,0.00,,,0.00,0,Cumulus v1.9.3,2013-05-21 01:30:00,
2013-05-20 20:31:00,77.5,58.0,29.59,SSW,210,3.0,3.0,51,0.00,,SKC,0.00,0.00,VWS V14.01,2013-05-21 01:31:00,
2013-05-20 20:36:00,77.4,58.4,29.59,SSW,210,2.0,5.0,52,0.00,,SKC,0.00,0.00,VWS V14.01,2013-05-21 01:36:00,
2013-05-20 20:40:00,77.1,58.6,29.60,SSW,203,3.0,5.0,53,0.00,,,0.00,0,Cumulus v1.9.3,2013-05-21 01:40:00,
2013-05-20 20:41:00,77.1,58.7,29.60,SSW,213,4.0,7.0,53,0.00,,SKC,0.00,0.00,VWS V14.01,2013-05-21 01:41:00,
2013-05-20 20:46:00,76.8,58.9,29.60,SSW,198,4.0,7.0,54,0.00,,SKC,0.00,0.00,VWS V14.01,2013-05-21 01:46:00,
2013-05-20 20:50:00,76.6,59.2,29.59,SSW,203,5.0,7.0,55,0.00,,,0.00,0,Cumulus v1.9.3,2013-05-21 01:50:00,
2013-05-20 20:51:00,76.6,59.2,29.60,SW,217,3.0,4.0,55,0.00,,SKC,0.00,0.00,VWS V14.01,2013-05-21 01:51:00,
2013-05-20 20:56:00,76.4,59.1,29.60,SW,224,7.0,7.0,55,0.00,,SKC,0.00,0.00,VWS V14.01,2013-05-21 01:56:00,
2013-05-20 21:00:00,76.2,58.9,29.60,SW,225,5.0,8.0,55,0.00,,,0.00,0,Cumulus v1.9.3,2013-05-21 02:00:00,
2013-05-20 21:01:00,76.2,58.9,29.60,SSW,209,4.0,5.0,55,0.00,,SKC,0.00,0.00,VWS V14.01,2013-05-21 02:01:00,
2013-05-20 21:06:00,76.0,59.2,29.60,SSW,209,2.0,7.0,56,0.00,,SKC,0.00,0.00,VWS V14.01,2013-05-21 02:06:00,
2013-05-20 21:10:00,75.9,59.6,29.60,SSW,203,4.0,7.0,57,0.00,,,0.00,0,Cumulus v1.9.3,2013-05-21 02:10:00,
2013-05-20 21:11:00,75.8,59.5,29.60,SSW,209,3.0,5.0,57,0.00,,SKC,0.00,0.00,VWS V14.01,2013-05-21 02:11:00,
2013-05-20 21:16:00,75.8,59.5,29.60,SSW,209,3.0,6.0,57,0.00,,SKC,0.00,0.00,VWS V14.01,2013-05-21 02:16:00,
2013-05-20 21:20:00,75.7,59.4,29.60,SSW,203,3.0,6.0,57,0.00,,,0.00,0,Cumulus v1.9.3,2013-05-21 02:20:00,
2013-05-20 21:21:00,75.7,59.4,29.60,SSW,209,0.0,0.0,57,0.00,,SKC,0.00,0.00,VWS V14.01,2013-05-21 02:21:00,
2013-05-20 21:26:00,75.5,59.7,29.60,SSW,209,0.0,3.0,58,0.00,,SKC,0.00,0.00,VWS V14.01,2013-05-21 02:26:00,
2013-05-20 21:30:00,75.4,59.6,29.60,SSW,203,0.0,3.0,58,0.00,,,0.00,0,Cumulus v1.9.3,2013-05-21 02:30:00,
2013-05-20 21:31:00,75.3,59.5,29.60,SSW,209,0.0,0.0,58,0.00,,SKC,0.00,0.00,VWS V14.01,2013-05-21 02:31:00,
2013-05-20 21:36:00,74.9,59.6,29.60,SSW,209,0.0,0.0,59,0.00,,SKC,0.00,0.00,VWS V14.01,2013-05-21 02:36:00,
2013-05-20 21:40:00,74.6,59.3,29.60,North,0,0.0,0.0,59,0.00,,,0.00,0,Cumulus v1.9.3,2013-05-21 02:40:00,
2013-05-20 21:41:00,74.5,59.2,29.60,SSW,209,0.0,0.0,59,0.00,,SKC,0.00,0.00,VWS V14.01,2013-05-21 02:41:00,
2013-05-20 21:46:00,74.2,59.9,29.60,SSW,209,0.0,0.0,61,0.00,,SKC,0.00,0.00,VWS V14.01,2013-05-21 02:46:00,
2013-05-20 21:50:00,73.9,59.6,29.60,North,0,0.0,0.0,61,0.00,,,0.00,0,Cumulus v1.9.3,2013-05-21 02:50:00,
2013-05-20 21:51:00,73.8,59.5,29.60,SSW,209,0.0,0.0,61,0.00,,SKC,0.00,0.00,VWS V14.01,2013-05-21 02:51:00,
2013-05-20 21:56:00,73.5,59.2,29.61,SSW,209,0.0,0.0,61,0.00,,SKC,0.00,0.00,VWS V14.01,2013-05-21 02:56:00,
2013-05-20 22:00:00,73.3,59.5,29.60,North,0,0.0,0.0,62,0.00,,,0.00,0,Cumulus v1.9.3,2013-05-21 03:00:00,
2013-05-20 22:01:00,73.3,59.5,29.60,SSW,209,0.0,0.0,62,0.00,,SKC,0.00,0.00,VWS V14.01,2013-05-21 03:01:00,
2013-05-20 22:06:00,73.0,60.1,29.60,SSW,209,0.0,0.0,64,0.00,,SKC,0.00,0.00,VWS V14.01,2013-05-21 03:06:00,
2013-05-20 22:10:00,72.9,60.4,29.60,North,0,0.0,0.0,65,0.00,,,0.00,0,Cumulus v1.9.3,2013-05-21 03:10:00,
2013-05-20 22:11:00,72.8,59.9,29.60,SSW,209,0.0,0.0,64,0.00,,SKC,0.00,0.00,VWS V14.01,2013-05-21 03:11:00,
2013-05-20 22:16:00,72.6,60.2,29.60,SSW,209,0.0,0.0,65,0.00,,SKC,0.00,0.00,VWS V14.01,2013-05-21 03:16:00,
2013-05-20 22:20:00,72.5,60.1,29.60,North,0,0.0,0.0,65,0.00,,,0.00,0,Cumulus v1.9.3,2013-05-21 03:20:00,
2013-05-20 22:21:00,72.5,60.5,29.60,SSW,209,0.0,0.0,66,0.00,,SKC,0.00,0.00,VWS V14.01,2013-05-21 03:21:00,
2013-05-20 22:26:00,72.0,60.5,29.59,SSW,209,0.0,0.0,67,0.00,,SKC,0.00,0.00,VWS V14.01,2013-05-21 03:26:00,
2013-05-20 22:30:00,71.7,60.2,29.59,SSW,203,0.0,2.0,67,0.00,,,0.00,0,Cumulus v1.9.3,2013-05-21 03:30:00,
2013-05-20 22:31:00,71.7,60.2,29.58,SSW,209,0.0,2.0,67,0.00,,SKC,0.00,0.00,VWS V14.01,2013-05-21 03:31:00,
2013-05-20 22:36:00,71.5,60.4,29.58,SSW,209,2.0,2.0,68,0.00,,SKC,0.00,0.00,VWS V14.01,2013-05-21 03:36:00,
2013-05-20 22:40:00,71.4,60.3,29.57,SSW,203,1.0,3.0,68,0.00,,,0.00,0,Cumulus v1.9.3,2013-05-21 03:40:00,
2013-05-20 22:41:00,71.4,60.3,29.58,SSW,209,0.0,0.0,68,0.00,,SKC,0.00,0.00,VWS V14.01,2013-05-21 03:41:00,
2013-05-20 22:46:00,71.4,60.7,29.58,SSW,209,0.0,0.0,69,0.00,,SKC,0.00,0.00,VWS V14.01,2013-05-21 03:46:00,
2013-05-20 22:50:00,71.3,60.6,29.58,SSW,203,0.0,1.0,69,0.00,,,0.00,0,Cumulus v1.9.3,2013-05-21 03:50:00,
2013-05-20 22:51:00,71.3,60.6,29.58,SSW,209,0.0,1.0,69,0.00,,SKC,0.00,0.00,VWS V14.01,2013-05-21 03:51:00,
2013-05-20 22:56:00,71.6,60.9,29.59,SSW,209,0.0,4.0,69,0.00,,SKC,0.00,0.00,VWS V14.01,2013-05-21 03:56:00,
2013-05-20 23:00:00,71.5,62.0,29.59,SSW,203,0.0,4.0,72,0.00,,,0.00,0,Cumulus v1.9.3,2013-05-21 04:00:00,
2013-05-20 23:01:00,71.5,62.0,29.60,SSW,209,2.0,2.0,72,0.00,,SKC,0.00,0.00,VWS V14.01,2013-05-21 04:01:00,
2013-05-20 23:06:00,71.2,62.1,29.61,SW,215,1.0,4.0,73,0.00,,SKC,0.00,0.00,VWS V14.01,2013-05-21 04:06:00,
2013-05-20 23:10:00,71.1,62.0,29.62,SW,225,2.0,5.0,73,0.00,,,0.00,0,Cumulus v1.9.3,2013-05-21 04:10:00,
2013-05-20 23:11:00,71.1,62.0,29.62,SSW,213,7.0,7.0,73,0.00,,SKC,0.00,0.00,VWS V14.01,2013-05-21 04:11:00,
2013-05-20 23:16:00,70.8,61.7,29.62,SSW,193,9.0,11.0,73,0.00,,SKC,0.00,0.00,VWS V14.01,2013-05-21 04:16:00,
2013-05-20 23:20:00,71.3,61.8,29.62,SSW,208,8.0,17.0,72,0.00,,,0.00,0,Cumulus v1.9.3,2013-05-21 04:20:00,
2013-05-20 23:21:00,71.5,62.0,29.62,South,191,11.0,17.0,72,0.00,,SKC,0.00,0.00,VWS V14.01,2013-05-21 04:21:00,
2013-05-20 23:26:00,71.5,62.4,29.63,South,175,12.0,17.0,73,0.00,,SKC,0.00,0.00,VWS V14.01,2013-05-21 04:26:00,
2013-05-20 23:30:00,71.6,62.5,29.63,South,181,10.0,22.0,73,0.01,,,0.01,0,Cumulus v1.9.3,2013-05-21 04:30:00,
2013-05-20 23:31:00,71.6,62.5,29.62,South,189,10.0,17.0,73,0.01,,SKC,0.01,0.00,VWS V14.01,2013-05-21 04:31:00,
2013-05-20 23:36:00,71.5,62.4,29.62,South,175,13.0,23.0,73,0.02,,SKC,0.02,0.00,VWS V14.01,2013-05-21 04:36:00,
2013-05-20 23:40:00,71.0,62.7,29.61,South,181,14.0,24.0,75,0.02,,,0.02,0,Cumulus v1.9.3,2013-05-21 04:40:00,
2013-05-20 23:41:00,70.9,63.0,29.60,SSE,166,21.0,21.0,76,0.02,,SKC,0.02,0.00,VWS V14.01,2013-05-21 04:41:00,
2013-05-20 23:46:00,70.1,62.9,29.60,South,178,12.0,24.0,78,0.03,,SKC,0.03,0.00,VWS V14.01,2013-05-21 04:46:00,
2013-05-20 23:50:00,69.6,63.2,29.59,South,181,14.0,24.0,80,0.05,,,0.05,0,Cumulus v1.9.3,2013-05-21 04:50:00,
2013-05-20 23:51:00,69.3,63.2,29.59,SSW,196,10.0,24.0,81,0.05,,SKC,0.05,0.00,VWS V14.01,2013-05-21 04:51:00,
2013-05-20 23:57:00,68.5,63.1,29.59,South,182,11.0,24.0,83,0.07,,SKC,0.07,0.00,VWS V14.01,2013-05-21 04:57:00,